Αναφορές πλησιέστερων αεροδρομίων

 

LGSO - Ermoupoli, Syros, GR
Distance from station: ΝΑ 3km
Ενημερώθηκε: 24/09/2022 15:50
Ασθενής βροχή
Ασθενής βροχή
 Ανεμος από ΒΒΑ
Άνεμος: ΒΒΑ 20 km/h
Θερμοκρασία: 20°C
Σημείο Δρόσου: 8°C
Υγρασία: 46%
Βαρόμετρο: 1020 hPa
Περίληψη: Ασθενής βροχή
2022/09/24 15:50 LGSO 241550Z AUTO 02011KT 330V040 //// -RA ////// 20/08 Q1020 RE//
LGAV - Athens, GR
Distance from station: Β 104km
Ενημερώθηκε: 24/09/2022 16:20
Few Clouds
Few Clouds
 Ανεμος από Α
Άνεμος: Α 9 km/h
Θερμοκρασία: 20°C
Σημείο Δρόσου: 9°C
Υγρασία: 49%
Βαρόμετρο: 1020 hPa
Clouds: Few Clouds
Visibility: 10 km
Cloud details: Few Clouds 914 m
2022/09/24 16:20 LGAV 241620Z 10005KT 9999 FEW030 20/09 Q1020 NOSIG